LPPS/PXO METAR and TAF weather

Enter ICAO airport designator
Station Type Date Time Source
LPPS METAR 2020/09/20 09:30 UTC NOAA

LPPS 200930Z 10004KT 040V160 9999 FEW015 23/17 Q1020


Station Type Date Time Source
LPPS Decoded METAR 2020/09/20 09:30 UTC NOAA

Porto Santo, Portugal (LPPS) 33-04N 016-21W 82M
Sep 20, 2020 - 05:30 AM EDT / 2020.09.20 0930 UTC
Wind: from the E (100 degrees) at 5 MPH (4 KT) (direction variable):0
Visibility: greater than 7 mile(s):0
Sky conditions: mostly clear
Temperature: 73 F (23 C)
Dew Point: 62 F (17 C)
Relative Humidity: 68%
Pressure (altimeter): 30.12 in. Hg (1020 hPa)
ob: LPPS 200930Z 10004KT 040V160 9999 FEW015 23/17 Q1020
cycle: 9

Station Type Date Time Source
LPPS TAF 2020/09/20 06:18 UTC NOAA

TAF LPPS 200500Z 2006/2112 VRB05KT 9999 SCT015
BECMG 2006/2009 09007KT

Example: see airport list